Terminal Aerodrome Forecast
Issued by NWS

Home | Current Version | Previous Version | Text Only | Print | Product List | Glossary On
Versions: 1 2 3 4 5 6 7 8 9 10 11 12 13 14 15 16 17 18 19
000
FTUS43 KDLH 271700
TAFBRD
TAF
KBRD 271726Z 2718/2818 VRB03KT P6SM SKC
     FM280200 16005KT P6SM SCT040 OVC100
     FM280600 14008KT 3SM -SN SCT025 OVC040
     FM281200 14007KT 2SM -SN SCT015 OVC025=

USA.gov is the U.S. government's official web portal to all federal, state and local government web resources and services.